createdAt,value
2018-04-17T00:01:22.940Z,15.00
2018-04-17T00:03:49.676Z,13.47
2018-04-17T00:06:15.737Z,14.60
2018-04-17T00:08:41.885Z,14.13
2018-04-17T00:11:08.616Z,15.30
2018-04-17T00:13:34.980Z,17.20
2018-04-17T00:16:01.130Z,17.10
2018-04-17T00:18:28.102Z,19.87
2018-04-17T00:20:54.855Z,17.63
2018-04-17T00:23:22.841Z,16.90
2018-04-17T00:25:49.787Z,19.00
2018-04-17T00:28:15.966Z,17.63
2018-04-17T00:30:43.051Z,16.40
2018-04-17T00:33:09.785Z,17.93
2018-04-17T00:35:36.907Z,18.27
2018-04-17T00:38:03.032Z,17.83
2018-04-17T00:40:29.900Z,17.30
2018-04-17T00:42:57.023Z,19.67
2018-04-17T00:45:24.875Z,20.40
2018-04-17T00:47:51.082Z,19.73
2018-04-17T00:50:18.061Z,21.27
2018-04-17T00:52:45.101Z,20.80
2018-04-17T00:55:13.810Z,22.10
2018-04-17T00:57:40.064Z,23.93
2018-04-17T01:00:07.049Z,22.17
2018-04-17T01:02:33.390Z,21.57
2018-04-17T01:04:59.620Z,21.57
2018-04-17T01:07:25.895Z,23.10
2018-04-17T01:09:53.118Z,22.23
2018-04-17T01:12:19.378Z,22.10
2018-04-17T01:14:45.558Z,23.10
2018-04-17T01:17:11.783Z,21.97
2018-04-17T01:19:38.047Z,23.53
2018-04-17T01:22:04.803Z,25.37
2018-04-17T01:24:31.125Z,26.67
2018-04-17T01:26:57.421Z,21.60
2018-04-17T01:29:23.544Z,20.53
2018-04-17T01:31:50.438Z,22.37
2018-04-17T01:34:17.517Z,22.97
2018-04-17T01:36:43.590Z,25.13
2018-04-17T01:39:09.778Z,25.30
2018-04-17T01:41:37.065Z,22.50
2018-04-17T01:44:03.197Z,24.50
2018-04-17T01:46:30.182Z,24.00
2018-04-17T01:48:57.125Z,22.27
2018-04-17T01:51:23.977Z,21.73
2018-04-17T01:53:50.825Z,23.73
2018-04-17T01:56:17.818Z,23.50
2018-04-17T01:58:44.818Z,22.90
2018-04-17T02:01:12.013Z,25.70
2018-04-17T02:03:38.211Z,24.40
2018-04-17T02:06:04.500Z,24.23
2018-04-17T02:08:30.750Z,22.63
2018-04-17T02:10:56.983Z,27.83
2018-04-17T02:13:23.090Z,22.27
2018-04-17T02:15:50.355Z,23.00
2018-04-17T02:18:16.613Z,24.57
2018-04-17T02:20:42.801Z,23.63
2018-04-17T02:23:09.018Z,22.83
2018-04-17T02:25:35.365Z,24.40
2018-04-17T02:28:02.431Z,24.40
2018-04-17T02:30:28.861Z,24.20
2018-04-17T02:32:55.173Z,22.53
2018-04-17T02:35:21.626Z,22.27
2018-04-17T02:37:47.845Z,22.93
2018-04-17T02:40:14.105Z,21.20
2018-04-17T02:42:40.280Z,23.30
2018-04-17T02:45:06.588Z,24.57
2018-04-17T02:47:33.033Z,22.07
2018-04-17T02:50:00.471Z,23.60
2018-04-17T02:52:26.875Z,22.77
2018-04-17T02:54:54.309Z,22.93
2018-04-17T02:57:22.325Z,20.30
2018-04-17T02:59:48.821Z,24.63
2018-04-17T03:02:15.168Z,21.83
2018-04-17T03:04:41.398Z,27.07
2018-04-17T03:07:07.645Z,24.73
2018-04-17T03:09:34.592Z,25.43
2018-04-17T03:12:01.616Z,21.27
2018-04-17T03:14:27.716Z,22.30
2018-04-17T03:16:54.580Z,28.80
2018-04-17T03:19:20.672Z,28.73
2018-04-17T03:21:46.857Z,23.80
2018-04-17T03:24:14.177Z,26.00
2018-04-17T03:26:41.044Z,26.33
2018-04-17T03:29:07.271Z,24.97
2018-04-17T03:31:33.478Z,27.43
2018-04-17T03:34:00.327Z,22.93
2018-04-17T03:36:26.690Z,24.73
2018-04-17T03:38:52.929Z,24.20
2018-04-17T03:41:19.151Z,22.93
2018-04-17T03:43:45.345Z,25.90
2018-04-17T03:46:11.656Z,23.43
2018-04-17T03:48:37.877Z,24.43
2018-04-17T03:51:04.066Z,25.37
2018-04-17T03:53:30.481Z,25.27
2018-04-17T03:55:56.816Z,23.03
2018-04-17T03:58:23.221Z,22.40
2018-04-17T04:00:49.580Z,26.77
2018-04-17T04:03:15.671Z,26.40
2018-04-17T04:05:41.850Z,20.53
2018-04-17T04:08:08.135Z,25.40
2018-04-17T04:10:34.344Z,24.37
2018-04-17T04:13:01.305Z,31.47
2018-04-17T04:15:28.345Z,29.57
2018-04-17T04:18:07.725Z,20.40
2018-04-17T04:20:47.135Z,30.37
2018-04-17T04:23:25.867Z,24.57
2018-04-17T04:26:04.485Z,34.70
2018-04-17T04:28:30.629Z,22.90
2018-04-17T04:30:56.827Z,21.60
2018-04-17T04:33:23.038Z,24.30
2018-04-17T04:35:49.159Z,29.17
2018-04-17T04:38:15.442Z,27.20
2018-04-17T04:40:43.392Z,26.73
2018-04-17T04:43:10.495Z,23.70
2018-04-17T04:45:36.929Z,30.87
2018-04-17T04:48:03.012Z,21.53
2018-04-17T04:50:30.001Z,23.47
2018-04-17T04:52:56.230Z,23.83
2018-04-17T04:55:22.491Z,25.03
2018-04-17T04:57:48.697Z,24.90
2018-04-17T05:00:15.737Z,23.10
2018-04-17T05:02:41.927Z,30.17
2018-04-17T05:05:08.247Z,27.60
2018-04-17T05:07:35.246Z,26.13
2018-04-17T05:10:02.525Z,26.93
2018-04-17T05:12:28.835Z,26.47
2018-04-17T05:14:55.151Z,25.53
2018-04-17T05:17:21.903Z,23.50
2018-04-17T05:19:48.100Z,24.03
2018-04-17T05:22:14.659Z,25.57
2018-04-17T05:24:42.888Z,26.97
2018-04-17T05:27:10.510Z,27.60
2018-04-17T05:29:36.837Z,25.90
2018-04-17T05:32:03.842Z,28.70
2018-04-17T05:34:32.640Z,24.47
2018-04-17T05:37:00.158Z,23.83
2018-04-17T05:39:26.792Z,32.07
2018-04-17T05:41:53.790Z,21.30
2018-04-17T05:44:20.599Z,29.50
2018-04-17T05:46:46.711Z,25.00
2018-04-17T05:49:13.703Z,27.30
2018-04-17T05:51:40.641Z,34.40
2018-04-17T05:54:06.816Z,26.60
2018-04-17T05:56:34.063Z,26.23
2018-04-17T05:59:00.289Z,30.17
2018-04-17T06:01:27.603Z,25.90
2018-04-17T06:03:53.709Z,24.77
2018-04-17T06:06:19.939Z,26.97
2018-04-17T06:08:46.692Z,29.30
2018-04-17T06:11:14.258Z,24.70
2018-04-17T06:13:40.481Z,25.97
2018-04-17T06:16:08.578Z,38.97
2018-04-17T06:18:34.749Z,32.57
2018-04-17T06:21:02.178Z,33.43
2018-04-17T06:23:28.523Z,32.40
2018-04-17T06:25:55.189Z,31.53
2018-04-17T06:28:21.412Z,29.83
2018-04-17T06:30:49.603Z,25.67
2018-04-17T06:33:16.323Z,27.37
2018-04-17T06:35:43.581Z,23.03
2018-04-17T06:38:10.556Z,30.17
2018-04-17T06:40:36.746Z,23.27
2018-04-17T06:43:02.944Z,26.53
2018-04-17T06:45:29.196Z,30.10
2018-04-17T06:47:58.313Z,37.83
2018-04-17T06:50:24.411Z,24.80
2018-04-17T06:52:50.764Z,26.43
2018-04-17T06:55:19.163Z,33.53
2018-04-17T06:57:45.374Z,24.80
2018-04-17T07:00:11.579Z,27.20
2018-04-17T07:02:38.162Z,24.00
2018-04-17T07:05:04.365Z,24.50
2018-04-17T07:07:30.614Z,21.87
2018-04-17T07:09:58.301Z,25.60
2018-04-17T07:12:24.497Z,25.90
2018-04-17T07:14:51.339Z,25.97
2018-04-17T07:17:20.369Z,24.37
2018-04-17T07:19:46.572Z,29.27
2018-04-17T07:22:12.745Z,25.37
2018-04-17T07:24:39.225Z,28.93
2018-04-17T07:27:05.456Z,23.83
2018-04-17T07:29:31.830Z,26.40
2018-04-17T07:31:57.868Z,29.00
2018-04-17T07:34:24.045Z,32.23
2018-04-17T07:36:50.188Z,27.23
2018-04-17T07:39:16.275Z,28.00
2018-04-17T07:41:42.517Z,23.87
2018-04-17T07:44:08.687Z,27.73
2018-04-17T07:46:34.916Z,27.40
2018-04-17T07:49:06.790Z,25.77
2018-04-17T07:51:32.962Z,30.03
2018-04-17T07:53:59.817Z,24.90
2018-04-17T07:56:27.761Z,25.80
2018-04-17T07:58:54.906Z,27.73
2018-04-17T08:01:21.052Z,25.10
2018-04-17T08:03:47.211Z,27.10
2018-04-17T08:06:13.854Z,25.20
2018-04-17T08:08:40.018Z,26.27
2018-04-17T08:11:06.180Z,31.23
2018-04-17T08:13:32.280Z,26.70
2018-04-17T08:15:58.392Z,24.93
2018-04-17T08:18:24.565Z,30.90
2018-04-17T08:20:50.758Z,26.03
2018-04-17T08:23:17.525Z,25.40
2018-04-17T08:25:44.020Z,26.80
2018-04-17T08:28:10.341Z,25.10
2018-04-17T08:30:36.393Z,27.73
2018-04-17T08:33:03.127Z,28.00
2018-04-17T08:35:30.017Z,31.50
2018-04-17T08:37:56.192Z,34.00
2018-04-17T08:40:23.655Z,33.67
2018-04-17T08:42:49.747Z,28.83
2018-04-17T08:45:15.777Z,29.90
2018-04-17T08:47:41.830Z,39.47
2018-04-17T08:50:08.367Z,27.17
2018-04-17T08:52:34.552Z,25.77
2018-04-17T08:55:01.661Z,32.20
2018-04-17T08:57:27.948Z,25.93
2018-04-17T08:59:54.913Z,27.90
2018-04-17T09:02:21.011Z,26.73
2018-04-17T09:04:47.271Z,31.50
2018-04-17T09:07:13.380Z,30.73
2018-04-17T09:09:40.261Z,34.50
2018-04-17T09:12:07.234Z,28.23
2018-04-17T09:14:33.501Z,29.60
2018-04-17T09:17:01.108Z,36.37
2018-04-17T09:19:27.171Z,26.57
2018-04-17T09:21:54.746Z,25.13
2018-04-17T09:24:21.844Z,25.40
2018-04-17T09:26:48.033Z,25.80
2018-04-17T09:29:15.023Z,31.20
2018-04-17T09:31:41.481Z,24.43
2018-04-17T09:34:07.728Z,25.17
2018-04-17T09:36:33.935Z,28.97
2018-04-17T09:39:00.137Z,27.00
2018-04-17T09:41:26.311Z,23.17
2018-04-17T09:43:52.557Z,24.73
2018-04-17T09:46:19.480Z,23.23
2018-04-17T09:48:46.260Z,23.53
2018-04-17T09:51:13.530Z,22.67
2018-04-17T09:53:40.467Z,24.13
2018-04-17T09:56:06.619Z,24.23
2018-04-17T09:58:33.563Z,34.93
2018-04-17T10:01:12.603Z,24.70
2018-04-17T10:03:39.492Z,17.60
2018-04-17T10:06:05.505Z,20.90
2018-04-17T10:08:31.705Z,16.17
2018-04-17T10:10:57.967Z,19.20
2018-04-17T10:13:24.067Z,17.50
2018-04-17T10:15:50.254Z,22.13
2018-04-17T10:18:16.338Z,18.33
2018-04-17T10:20:44.553Z,19.33
2018-04-17T10:23:10.932Z,18.53
2018-04-17T10:25:37.863Z,22.10
2018-04-17T10:28:03.980Z,20.23
2018-04-17T10:30:30.120Z,17.03
2018-04-17T10:32:56.144Z,18.07
2018-04-17T10:35:22.255Z,13.80
2018-04-17T10:37:49.216Z,17.20
2018-04-17T10:40:16.175Z,17.47
2018-04-17T10:42:43.087Z,18.83
2018-04-17T10:45:10.010Z,17.53
2018-04-17T10:47:36.236Z,16.20
2018-04-17T10:50:02.452Z,17.50
2018-04-17T10:52:28.641Z,15.93
2018-04-17T10:54:55.063Z,14.53
2018-04-17T10:57:21.247Z,18.60
2018-04-17T10:59:48.226Z,10.00
2018-04-17T11:02:14.339Z,9.60
2018-04-17T11:04:40.554Z,8.87
2018-04-17T11:07:07.389Z,10.13
2018-04-17T11:09:34.184Z,10.93
2018-04-17T11:12:00.281Z,8.70
2018-04-17T11:14:26.431Z,7.27
2018-04-17T11:16:52.548Z,11.40
2018-04-17T11:19:18.600Z,12.80
2018-04-17T11:21:44.735Z,8.07
2018-04-17T11:24:10.836Z,12.20
2018-04-17T11:26:36.999Z,9.40
2018-04-17T11:29:03.207Z,9.70
2018-04-17T11:31:29.332Z,13.13
2018-04-17T11:33:57.659Z,8.77
2018-04-17T11:36:23.875Z,11.73
2018-04-17T11:38:50.049Z,8.20
2018-04-17T11:41:16.069Z,7.77
2018-04-17T11:43:42.220Z,10.60
2018-04-17T11:46:08.472Z,7.67
2018-04-17T11:48:34.641Z,7.67
2018-04-17T11:51:00.842Z,6.67
2018-04-17T11:53:27.001Z,5.63
2018-04-17T11:55:53.134Z,8.03
2018-04-17T11:58:19.342Z,8.73
2018-04-17T12:00:46.227Z,6.93
2018-04-17T12:03:12.390Z,6.83
2018-04-17T12:05:38.605Z,5.90
2018-04-17T12:08:05.596Z,7.03
2018-04-17T12:10:32.581Z,6.40
2018-04-17T12:12:58.874Z,8.67
2018-04-17T12:15:25.199Z,7.00
2018-04-17T12:17:51.347Z,4.97
2018-04-17T12:20:17.475Z,7.00
2018-04-17T12:22:45.350Z,3.63
2018-04-17T12:25:11.790Z,7.40
2018-04-17T12:27:38.108Z,8.13
2018-04-17T12:30:05.588Z,3.50
2018-04-17T12:32:31.870Z,4.60
2018-04-17T12:34:58.003Z,3.70
2018-04-17T12:37:24.725Z,6.40
2018-04-17T12:39:53.938Z,6.83
2018-04-17T12:42:20.136Z,5.17
2018-04-17T12:44:46.615Z,9.67
2018-04-17T12:47:12.868Z,5.03
2018-04-17T12:49:39.767Z,7.70
2018-04-17T12:52:05.789Z,5.70
2018-04-17T12:54:32.731Z,4.53
2018-04-17T12:56:59.059Z,7.00
2018-04-17T12:59:25.381Z,5.07
2018-04-17T13:01:51.668Z,7.17
2018-04-17T13:04:18.559Z,4.57
2018-04-17T13:06:44.724Z,5.07
2018-04-17T13:09:11.023Z,4.20
2018-04-17T13:11:48.118Z,8.70
2018-04-17T13:14:14.241Z,5.90
2018-04-17T13:16:40.420Z,6.20
2018-04-17T13:19:06.784Z,5.40
2018-04-17T13:21:33.633Z,7.73
2018-04-17T13:23:59.948Z,8.60
2018-04-17T13:26:26.286Z,7.07
2018-04-17T13:28:53.159Z,5.53
2018-04-17T13:31:20.001Z,9.40
2018-04-17T13:33:47.190Z,6.63
2018-04-17T13:36:13.363Z,8.20
2018-04-17T13:38:40.423Z,7.73
2018-04-17T13:41:07.505Z,6.83
2018-04-17T13:43:33.594Z,6.00
2018-04-17T13:46:00.217Z,8.63
2018-04-17T13:48:26.376Z,8.23
2018-04-17T13:50:53.408Z,9.93
2018-04-17T13:53:19.610Z,11.23
2018-04-17T13:55:45.610Z,5.63
2018-04-17T13:58:11.844Z,6.30
2018-04-17T14:00:38.194Z,9.53
2018-04-17T14:03:04.318Z,7.23
2018-04-17T14:05:30.343Z,6.70
2018-04-17T14:07:56.455Z,8.40
2018-04-17T14:10:22.509Z,7.87
2018-04-17T14:12:48.610Z,9.07
2018-04-17T14:15:14.667Z,7.73
2018-04-17T14:17:40.864Z,8.63
2018-04-17T14:20:06.948Z,6.30
2018-04-17T14:22:34.628Z,9.60
2018-04-17T14:25:00.854Z,8.33
2018-04-17T14:27:27.060Z,6.90
2018-04-17T14:29:57.073Z,9.83
2018-04-17T14:32:23.530Z,7.77
2018-04-17T14:34:49.710Z,8.60
2018-04-17T14:37:15.836Z,5.70
2018-04-17T14:39:42.051Z,5.70
2018-04-17T14:42:09.173Z,12.10
2018-04-17T14:44:36.931Z,7.73
2018-04-17T14:47:03.903Z,7.97
2018-04-17T14:49:30.318Z,5.60
2018-04-17T14:51:56.845Z,6.83
2018-04-17T14:54:23.318Z,6.50
2018-04-17T14:56:49.917Z,8.33
2018-04-17T14:59:17.175Z,11.50
2018-04-17T15:01:43.819Z,7.57
2018-04-17T15:04:10.063Z,6.17
2018-04-17T15:06:36.500Z,9.30
2018-04-17T15:09:02.930Z,5.60
2018-04-17T15:11:29.118Z,8.43
2018-04-17T15:13:55.458Z,11.53
2018-04-17T15:16:21.639Z,6.27
2018-04-17T15:18:48.161Z,7.77
2018-04-17T15:21:14.605Z,6.80
2018-04-17T15:23:42.830Z,5.97
2018-04-17T15:26:09.896Z,9.43
2018-04-17T15:28:36.023Z,6.43
2018-04-17T15:31:02.132Z,5.83
2018-04-17T15:33:28.863Z,7.17
2018-04-17T15:35:55.077Z,6.70
2018-04-17T15:38:21.349Z,5.43
2018-04-17T15:40:47.527Z,5.70
2018-04-17T15:43:14.733Z,7.13
2018-04-17T15:45:44.039Z,8.50
2018-04-17T15:48:10.396Z,7.73
2018-04-17T15:50:36.917Z,5.43
2018-04-17T15:53:03.802Z,6.90
2018-04-17T15:55:31.446Z,8.63
2018-04-17T15:57:58.119Z,7.33
2018-04-17T16:00:24.558Z,5.60
2018-04-17T16:02:52.156Z,6.43
2018-04-17T16:05:20.605Z,6.17
2018-04-17T16:07:52.103Z,5.30
2018-04-17T16:10:20.051Z,5.80
2018-04-17T16:12:49.248Z,8.43
2018-04-17T16:15:18.166Z,7.23
2018-04-17T16:17:45.552Z,8.70
2018-04-17T16:20:11.866Z,8.00
2018-04-17T16:22:39.566Z,8.50
2018-04-17T16:25:05.836Z,5.33
2018-04-17T16:27:32.293Z,8.60
2018-04-17T16:29:58.778Z,11.30
2018-04-17T16:32:25.000Z,5.23
2018-04-17T16:34:51.952Z,8.57
2018-04-17T16:37:18.108Z,6.90
2018-04-17T16:39:44.235Z,6.87
2018-04-17T16:42:10.576Z,5.10
2018-04-17T16:44:36.663Z,5.17
2018-04-17T16:47:02.932Z,8.30
2018-04-17T16:49:30.132Z,8.50
2018-04-17T16:51:57.184Z,6.07
2018-04-17T16:54:23.404Z,10.80
2018-04-17T16:56:50.154Z,12.87
2018-04-17T16:59:17.175Z,5.03
2018-04-17T17:01:45.780Z,6.07
2018-04-17T17:04:13.027Z,6.00
2018-04-17T17:06:39.296Z,7.17
2018-04-17T17:09:05.560Z,4.67
2018-04-17T17:11:31.736Z,9.07
2018-04-17T17:13:57.817Z,6.23
2018-04-17T17:16:23.990Z,5.53
2018-04-17T17:18:50.592Z,7.37
2018-04-17T17:21:17.994Z,5.33
2018-04-17T17:23:44.899Z,9.37
2018-04-17T17:26:11.044Z,5.60
2018-04-17T17:28:37.112Z,5.83
2018-04-17T17:31:03.199Z,6.40
2018-04-17T17:33:29.351Z,5.57
2018-04-17T17:35:55.508Z,7.30
2018-04-17T17:38:22.181Z,8.67
2018-04-17T17:40:48.345Z,6.20
2018-04-17T17:43:15.011Z,8.37
2018-04-17T17:45:41.176Z,7.00
2018-04-17T17:48:07.316Z,7.97
2018-04-17T17:50:33.480Z,10.13
2018-04-17T17:52:59.773Z,8.63
2018-04-17T17:55:25.943Z,7.10
2018-04-17T17:57:52.041Z,9.20
2018-04-17T18:00:18.250Z,8.43
2018-04-17T18:02:44.368Z,9.83
2018-04-17T18:05:10.493Z,12.70
2018-04-17T18:07:37.557Z,11.23
2018-04-17T18:10:03.720Z,11.70
2018-04-17T18:12:29.976Z,9.40
2018-04-17T18:14:56.275Z,10.67
2018-04-17T18:17:22.510Z,12.30
2018-04-17T18:19:49.594Z,7.77
2018-04-17T18:22:15.938Z,7.13
2018-04-17T18:24:42.214Z,11.37
2018-04-17T18:27:08.341Z,10.40
2018-04-17T18:29:34.550Z,9.53
2018-04-17T18:32:00.811Z,9.70
2018-04-17T18:34:26.889Z,8.27
2018-04-17T18:36:52.991Z,9.70
2018-04-17T18:39:19.136Z,10.20
2018-04-17T18:41:45.452Z,13.50
2018-04-17T18:44:11.925Z,12.70
2018-04-17T18:46:38.252Z,12.20
2018-04-17T18:49:06.328Z,19.87
2018-04-17T18:51:33.687Z,17.73
2018-04-17T18:53:59.854Z,11.70
2018-04-17T18:56:26.164Z,11.77
2018-04-17T18:58:53.009Z,24.37
2018-04-17T19:01:20.391Z,20.43
2018-04-17T19:03:47.058Z,24.20
2018-04-17T19:06:16.548Z,23.87
2018-04-17T19:08:42.843Z,22.90
2018-04-17T19:11:10.219Z,18.37
2018-04-17T19:13:37.292Z,16.50
2018-04-17T19:16:03.587Z,19.00
2018-04-17T19:18:31.185Z,43.10
2018-04-17T19:20:58.503Z,23.83
2018-04-17T19:23:24.702Z,19.60
2018-04-17T19:25:50.977Z,15.50
2018-04-17T19:28:18.719Z,17.80
2018-04-17T19:30:45.064Z,20.40
2018-04-17T19:33:12.288Z,31.30
2018-04-17T19:35:38.399Z,27.73
2018-04-17T19:38:06.056Z,29.77
2018-04-17T19:40:32.337Z,21.87
2018-04-17T19:42:59.594Z,24.50
2018-04-17T19:45:26.388Z,25.00
2018-04-17T19:47:55.604Z,23.13
2018-04-17T19:50:21.844Z,19.80
2018-04-17T19:52:47.984Z,29.70
2018-04-17T19:55:15.131Z,26.97
2018-04-17T19:57:42.083Z,22.83
2018-04-17T20:00:08.296Z,21.10
2018-04-17T20:02:34.502Z,23.50
2018-04-17T20:05:05.873Z,19.37
2018-04-17T20:07:32.081Z,20.53
2018-04-17T20:09:58.340Z,21.73
2018-04-17T20:12:24.477Z,22.10
2018-04-17T20:14:50.694Z,19.97
2018-04-17T20:17:17.171Z,18.07
2018-04-17T20:19:44.081Z,20.57
2018-04-17T20:22:10.512Z,17.10
2018-04-17T20:24:39.290Z,20.40
2018-04-17T20:29:43.428Z,18.60
2018-04-17T20:32:11.610Z,20.33
2018-04-17T20:37:24.948Z,17.47
2018-04-17T20:39:52.134Z,22.87
2018-04-17T20:42:18.429Z,21.43
2018-04-17T20:44:44.649Z,20.13
2018-04-17T20:47:11.837Z,19.63
2018-04-17T20:49:38.799Z,20.40
2018-04-17T20:52:05.751Z,18.40
2018-04-17T20:54:32.112Z,24.33
2018-04-17T20:56:59.426Z,22.27
2018-04-17T20:59:26.453Z,20.33
2018-04-17T21:01:53.321Z,18.50
2018-04-17T21:04:20.340Z,20.60
2018-04-17T21:06:47.474Z,21.50
2018-04-17T21:09:14.062Z,22.23
2018-04-17T21:11:40.326Z,19.23
2018-04-17T21:14:06.713Z,17.70
2018-04-17T21:16:33.583Z,16.43
2018-04-17T21:18:59.757Z,18.90
2018-04-17T21:21:25.928Z,20.17
2018-04-17T21:23:52.100Z,15.97
2018-04-17T21:26:18.440Z,19.03
2018-04-17T21:28:44.750Z,19.10
2018-04-17T21:31:12.449Z,21.63
2018-04-17T21:33:39.305Z,14.40
2018-04-17T21:36:06.231Z,15.70
2018-04-17T21:38:32.491Z,16.90
2018-04-17T21:40:58.687Z,18.00
2018-04-17T21:43:24.914Z,16.10
2018-04-17T21:45:51.118Z,17.13
2018-04-17T21:48:17.299Z,16.43
2018-04-17T21:50:43.395Z,19.23
2018-04-17T21:53:09.670Z,16.33
2018-04-17T21:55:36.027Z,20.27
2018-04-17T21:58:02.390Z,15.03
2018-04-17T22:00:28.814Z,15.30
2018-04-17T22:02:55.027Z,18.33
2018-04-17T22:05:21.256Z,16.90
2018-04-17T22:07:48.231Z,16.00
2018-04-17T22:10:14.505Z,15.17
2018-04-17T22:12:40.718Z,14.77
2018-04-17T22:15:07.211Z,14.23
2018-04-17T22:17:34.879Z,19.20
2018-04-17T22:20:02.147Z,24.20
2018-04-17T22:22:30.082Z,23.40
2018-04-17T22:24:56.425Z,18.30
2018-04-17T22:27:22.787Z,16.17
2018-04-17T22:29:50.264Z,19.47
2018-04-17T22:32:17.378Z,17.90
2018-04-17T22:34:43.575Z,16.43
2018-04-17T22:37:09.778Z,15.00
2018-04-17T22:39:37.580Z,14.77
2018-04-17T22:42:04.751Z,15.03
2018-04-17T22:44:31.756Z,17.27
2018-04-17T22:47:00.944Z,14.83
2018-04-17T22:49:28.425Z,14.07
2018-04-17T22:51:54.772Z,14.97
2018-04-17T22:54:21.244Z,13.20
2018-04-17T22:56:48.411Z,16.20
2018-04-17T22:59:14.662Z,13.40
2018-04-17T23:01:42.537Z,12.43
2018-04-17T23:04:08.988Z,13.67
2018-04-17T23:06:35.778Z,13.80
2018-04-17T23:09:02.042Z,11.97
2018-04-17T23:11:28.275Z,18.00
2018-04-17T23:13:54.643Z,15.50
2018-04-17T23:16:20.789Z,12.90
2018-04-17T23:18:47.566Z,16.90
2018-04-17T23:21:13.793Z,15.07
2018-04-17T23:23:40.786Z,17.93
2018-04-17T23:26:07.877Z,20.37
2018-04-17T23:28:34.230Z,15.60
2018-04-17T23:31:01.807Z,18.00
2018-04-17T23:33:28.734Z,15.77
2018-04-17T23:35:55.172Z,18.27
2018-04-17T23:38:21.441Z,18.50
2018-04-17T23:40:48.137Z,20.00
2018-04-17T23:43:14.538Z,15.57
2018-04-17T23:45:41.478Z,20.23
2018-04-17T23:48:08.492Z,15.23
2018-04-17T23:50:35.818Z,15.60
2018-04-17T23:53:02.935Z,14.57
2018-04-17T23:55:30.021Z,15.23
2018-04-17T23:57:56.936Z,14.37
